Time;durP1;ratioP1;P1;durP2;ratioP2;P2;SDS_P1;SDS_P2;PMS_P1;PMS_P2;Temp;Humidity;BMP_temperature;BMP_pressure;BME280_temperature;BME280_humidity;BME280_pressure;Samples;Min_cycle;Max_cycle;Signal;HPM_P1;HPM_P2
2022/11/10 00:01:55;;;;;;;;;;;;;;;;;;5107117;28;19918;-58
2022/11/10 00:04:20;;;;;;;;;;;;;;;;;;5106406;28;19924;-58
2022/11/10 00:06:46;;;;;;;;;;;;;;;;;;5110432;27;19969;-57
2022/11/10 00:09:12;;;;;;;;;;;;;;;;;;5113758;27;19919;-56
2022/11/10 00:11:37;;;;;;;;;;;;;;;;;;5109770;28;20298;-57
2022/11/10 00:17:03;;;;;;;;;;;;;;;;;;5107521;28;19922;-56
2022/11/10 00:19:32;;;;;;;;;;;;;;;;;;5106979;28;19915;-56
2022/11/10 00:21:58;;;;;;;;;;;;;;;;;;5109750;28;19927;-55
2022/11/10 00:24:23;;;;;;;;;;;;;;;;;;5109018;28;19915;-55
2022/11/10 00:26:48;;;;;;;;;;;;;;;;;;5110247;28;19922;-56
2022/11/10 00:29:14;;;;;;;;;;;;;;;;;;5109357;28;19927;-56
2022/11/10 00:31:39;;;;;;;;;;;;;;;;;;5112023;28;19916;-56
2022/11/10 00:34:05;;;;;;;;;;;;;;;;;;5105821;28;19923;-56
2022/11/10 00:36:30;;;;;;;;;;;;;;;;;;5106151;28;19919;-56
2022/11/10 00:38:56;;;;;;;;;;;;;;;;;;5110180;28;19923;-55
2022/11/10 00:41:21;;;;;;;;;;;;;;;;;;5102789;28;20269;-55
2022/11/10 00:43:47;;;;;;;;;;;;;;;;;;5108863;28;19947;-56
2022/11/10 00:46:12;;;;;;;;;;;;;;;;;;5109621;28;19926;-56
2022/11/10 00:48:38;;;;;;;;;;;;;;;;;;5109666;28;20277;-56
2022/11/10 00:51:03;;;;;;;;;;;;;;;;;;5111593;28;19916;-56
2022/11/10 00:53:28;;;;;;;;;;;;;;;;;;5103110;28;20293;-55
2022/11/10 00:55:54;;;;;;;;;;;;;;;;;;5107182;27;19923;-56
2022/11/10 00:58:19;;;;;;;;;;;;;;;;;;5107507;28;20016;-55
2022/11/10 01:00:44;;;;;;;;;;;;;;;;;;5113544;28;20392;-56
2022/11/10 01:03:14;;;;;;;;;;;;;;;;;;5111065;28;19961;-56
2022/11/10 01:05:39;;;;;;;;;;;;;;;;;;5115973;27;19923;-55
2022/11/10 01:08:04;;;;;;;;;;;;;;;;;;5113715;28;20014;-55
2022/11/10 01:10:29;;;;;;;;;;;;;;;;;;5111170;28;19923;-56
2022/11/10 01:12:55;;;;;;;;;;;;;;;;;;5112615;28;19915;-55
2022/11/10 01:15:20;;;;;;;;;;;;;;;;;;5112332;28;19924;-55
2022/11/10 01:17:46;;;;;;;;;;;;;;;;;;5112750;28;20385;-55
2022/11/10 01:20:11;;;;;;;;;;;;;;;;;;5118277;27;19916;-55
2022/11/10 01:22:36;;;;;;;;;;;;;;;;;;5107926;28;19977;-55
2022/11/10 01:25:02;;;;;;;;;;;;;;;;;;5105179;28;19916;-55
2022/11/10 01:27:27;;;;;;;;;;;;;;;;;;5112088;28;19916;-55
2022/11/10 01:29:52;;;;;;;;;;;;;;;;;;5107759;28;19920;-55
2022/11/10 01:32:18;;;;;;;;;;;;;;;;;;5110089;28;19955;-55
2022/11/10 01:34:43;;;;;;;;;;;;;;;;;;5110174;28;20392;-55
2022/11/10 01:37:08;;;;;;;;;;;;;;;;;;5108139;28;19915;-55
2022/11/10 01:39:33;;;;;;;;;;;;;;;;;;5112620;28;19915;-55
2022/11/10 01:41:59;;;;;;;;;;;;;;;;;;5106935;27;19969;-55
2022/11/10 01:44:25;;;;;;;;;;;;;;;;;;5116228;27;20349;-55
2022/11/10 01:46:50;;;;;;;;;;;;;;;;;;5110171;28;19916;-56
2022/11/10 01:49:17;;;;;;;;;;;;;;;;;;5110792;28;19920;-55
2022/11/10 01:52:00;;;;;;;;;;;;;;;;;;5110340;28;19915;-56
2022/11/10 01:54:28;;;;;;;;;;;;;;;;;;5112174;28;19915;-56
2022/11/10 01:56:56;;;;;;;;;;;;;;;;;;5108680;28;20351;-56
2022/11/10 01:59:24;;;;;;;;;;;;;;;;;;5108693;28;19947;-55
2022/11/10 02:01:52;;;;;;;;;;;;;;;;;;5110181;28;19969;-55
2022/11/10 02:04:18;;;;;;;;;;;;;;;;;;5106086;28;19916;-56
2022/11/10 02:06:44;;;;;;;;;;;;;;;;;;5111106;28;19920;-56
2022/11/10 02:09:10;;;;;;;;;;;;;;;;;;5105969;28;19920;-55
2022/11/10 02:11:36;;;;;;;;;;;;;;;;;;5104086;28;19922;-55
2022/11/10 02:14:02;;;;;;;;;;;;;;;;;;5112457;28;19915;-55
2022/11/10 02:16:27;;;;;;;;;;;;;;;;;;5110399;28;19939;-56
2022/11/10 02:18:52;;;;;;;;;;;;;;;;;;5111871;28;19920;-55
2022/11/10 02:21:18;;;;;;;;;;;;;;;;;;5111396;28;19976;-55
2022/11/10 02:23:45;;;;;;;;;;;;;;;;;;5109576;28;19916;-55
2022/11/10 02:26:12;;;;;;;;;;;;;;;;;;5111728;28;19983;-56
2022/11/10 02:28:37;;;;;;;;;;;;;;;;;;5111527;27;19928;-56
2022/11/10 02:31:03;;;;;;;;;;;;;;;;;;5118529;27;19973;-55
2022/11/10 02:33:28;;;;;;;;;;;;;;;;;;5104469;28;20389;-55
2022/11/10 02:35:54;;;;;;;;;;;;;;;;;;5111730;27;19922;-56
2022/11/10 02:38:19;;;;;;;;;;;;;;;;;;5112959;27;19916;-56
2022/11/10 02:40:44;;;;;;;;;;;;;;;;;;5111579;27;19920;-55
2022/11/10 02:43:11;;;;;;;;;;;;;;;;;;5110749;28;20407;-56
2022/11/10 02:45:45;;;;;;;;;;;;;;;;;;5112338;27;19972;-55
2022/11/10 02:48:11;;;;;;;;;;;;;;;;;;5107444;28;19919;-55
2022/11/10 02:50:36;;;;;;;;;;;;;;;;;;5110479;28;19915;-56
2022/11/10 02:53:02;;;;;;;;;;;;;;;;;;5109737;28;20328;-54
2022/11/10 02:55:28;;;;;;;;;;;;;;;;;;5109018;28;20385;-56
2022/11/10 02:57:53;;;;;;;;;;;;;;;;;;5108522;28;19916;-55
2022/11/10 03:00:18;;;;;;;;;;;;;;;;;;5111547;28;19915;-56
2022/11/10 03:02:44;;;;;;;;;;;;;;;;;;5110379;28;19915;-55
2022/11/10 03:05:09;;;;;;;;;;;;;;;;;;5107927;28;19940;-55
2022/11/10 03:07:34;;;;;;;;;;;;;;;;;;5108942;28;19915;-55
2022/11/10 03:10:00;;;;;;;;;;;;;;;;;;5108191;28;19916;-54
2022/11/10 03:12:25;;;;;;;;;;;;;;;;;;5109727;28;19970;-55
2022/11/10 03:14:50;;;;;;;;;;;;;;;;;;5111733;28;19924;-55
2022/11/10 03:17:16;;;;;;;;;;;;;;;;;;5110249;28;20613;-56
2022/11/10 03:19:41;;;;;;;;;;;;;;;;;;5110701;28;19928;-56
2022/11/10 03:22:06;;;;;;;;;;;;;;;;;;5110581;28;19915;-56
2022/11/10 03:24:32;;;;;;;;;;;;;;;;;;5111248;28;19922;-56
2022/11/10 03:26:57;;;;;;;;;;;;;;;;;;5113476;27;19935;-56
2022/11/10 03:29:22;;;;;;;;;;;;;;;;;;5108863;28;19968;-55
2022/11/10 03:31:47;;;;;;;;;;;;;;;;;;5108081;28;20286;-56
2022/11/10 03:34:13;;;;;;;;;;;;;;;;;;5109307;28;19920;-56
2022/11/10 03:36:38;;;;;;;;;;;;;;;;;;5108416;27;20365;-56
2022/11/10 03:39:03;;;;;;;;;;;;;;;;;;5109480;27;19916;-55
2022/11/10 03:41:28;;;;;;;;;;;;;;;;;;5108456;28;19919;-55
2022/11/10 03:43:54;;;;;;;;;;;;;;;;;;5109489;28;20002;-56
2022/11/10 03:46:19;;;;;;;;;;;;;;;;;;5110340;28;19916;-57
2022/11/10 03:48:44;;;;;;;;;;;;;;;;;;5110111;28;20392;-56
2022/11/10 03:51:10;;;;;;;;;;;;;;;;;;5108583;28;19916;-57
2022/11/10 03:53:35;;;;;;;;;;;;;;;;;;5113976;27;19937;-57
2022/11/10 03:56:04;;;;;;;;;;;;;;;;;;5109129;27;19938;-55
2022/11/10 03:58:29;;;;;;;;;;;;;;;;;;5109433;28;20369;-55
2022/11/10 04:00:55;;;;;;;;;;;;;;;;;;5110312;28;19969;-55
2022/11/10 04:03:20;;;;;;;;;;;;;;;;;;5110197;27;19916;-56
2022/11/10 04:15:40;;;;;;;;;;;;;;;;;;5104108;28;20011;-55
2022/11/10 04:16:42;;;;;;;;;;;;;;;;;;5108759;28;19927;-56
2022/11/10 04:19:08;;;;;;;;;;;;;;;;;;5109694;28;19920;-56
2022/11/10 04:21:33;;;;;;;;;;;;;;;;;;5110608;27;19919;-56
2022/11/10 04:23:58;;;;;;;;;;;;;;;;;;5108521;28;19934;-55
2022/11/10 04:26:31;;;;;;;;;;;;;;;;;;5102452;28;19912;-55
2022/11/10 04:29:00;;;;;;;;;;;;;;;;;;5103042;28;19919;-55
2022/11/10 04:31:27;;;;;;;;;;;;;;;;;;5107595;28;19912;-55
2022/11/10 04:33:53;;;;;;;;;;;;;;;;;;5109021;28;20304;-56
2022/11/10 04:36:20;;;;;;;;;;;;;;;;;;5109454;28;19916;-55
2022/11/10 04:38:46;;;;;;;;;;;;;;;;;;5104658;28;19912;-55
2022/11/10 04:41:11;;;;;;;;;;;;;;;;;;5107068;28;19928;-54
2022/11/10 04:43:37;;;;;;;;;;;;;;;;;;5114996;28;19931;-55
2022/11/10 04:46:03;;;;;;;;;;;;;;;;;;5111325;28;19927;-54
2022/11/10 04:48:29;;;;;;;;;;;;;;;;;;5110621;28;19923;-57
2022/11/10 04:50:55;;;;;;;;;;;;;;;;;;5110252;28;19916;-55
2022/11/10 04:53:20;;;;;;;;;;;;;;;;;;5110365;28;19935;-54
2022/11/10 04:55:46;;;;;;;;;;;;;;;;;;5107027;28;19944;-54
2022/11/10 04:58:11;;;;;;;;;;;;;;;;;;5110930;28;19923;-54
2022/11/10 05:00:37;;;;;;;;;;;;;;;;;;5110676;28;19919;-55
2022/11/10 05:03:04;;;;;;;;;;;;;;;;;;5107898;28;19927;-55
2022/11/10 05:05:29;;;;;;;;;;;;;;;;;;5107605;28;19959;-56
2022/11/10 05:07:54;;;;;;;;;;;;;;;;;;5110194;28;19974;-59
2022/11/10 05:10:19;;;;;;;;;;;;;;;;;;5110352;28;20292;-59
2022/11/10 05:12:45;;;;;;;;;;;;;;;;;;5107852;28;19916;-59
2022/11/10 05:15:11;;;;;;;;;;;;;;;;;;5109353;28;20015;-56
2022/11/10 05:17:36;;;;;;;;;;;;;;;;;;5109791;28;20199;-59
2022/11/10 05:20:01;;;;;;;;;;;;;;;;;;5113629;28;19919;-59
2022/11/10 05:22:26;;;;;;;;;;;;;;;;;;5110258;28;19922;-59
2022/11/10 05:24:52;;;;;;;;;;;;;;;;;;5107947;28;20014;-59
2022/11/10 05:27:17;;;;;;;;;;;;;;;;;;5108696;28;19923;-59
2022/11/10 05:29:42;;;;;;;;;;;;;;;;;;5110978;28;19924;-59
2022/11/10 05:32:07;;;;;;;;;;;;;;;;;;5116842;28;19915;-59
2022/11/10 05:34:33;;;;;;;;;;;;;;;;;;5110983;28;20258;-58
2022/11/10 05:36:58;;;;;;;;;;;;;;;;;;5108750;28;19916;-58
2022/11/10 05:39:23;;;;;;;;;;;;;;;;;;5108575;28;19983;-55
2022/11/10 05:41:50;;;;;;;;;;;;;;;;;;5108790;28;19916;-59
2022/11/10 05:44:15;;;;;;;;;;;;;;;;;;5108106;28;20420;-59
2022/11/10 05:46:41;;;;;;;;;;;;;;;;;;5111023;27;19923;-59
2022/11/10 05:49:06;;;;;;;;;;;;;;;;;;5112362;28;19972;-59
2022/11/10 05:51:32;;;;;;;;;;;;;;;;;;5112450;27;19951;-60
2022/11/10 05:53:57;;;;;;;;;;;;;;;;;;5113080;28;19916;-58
2022/11/10 05:56:22;;;;;;;;;;;;;;;;;;5113655;28;19966;-60
2022/11/10 05:58:47;;;;;;;;;;;;;;;;;;5114057;28;20438;-58
2022/11/10 06:01:12;;;;;;;;;;;;;;;;;;5113952;28;20281;-58
2022/11/10 06:03:38;;;;;;;;;;;;;;;;;;5113342;28;19958;-58
2022/11/10 06:06:03;;;;;;;;;;;;;;;;;;5113398;28;19931;-60
2022/11/10 06:08:28;;;;;;;;;;;;;;;;;;5113885;28;19922;-60
2022/11/10 06:10:54;;;;;;;;;;;;;;;;;;5111952;28;19916;-60
2022/11/10 06:13:19;;;;;;;;;;;;;;;;;;5113596;28;19912;-60
2022/11/10 06:15:44;;;;;;;;;;;;;;;;;;5100087;28;20281;-60
2022/11/10 06:18:09;;;;;;;;;;;;;;;;;;5110489;28;19922;-61
2022/11/10 06:20:35;;;;;;;;;;;;;;;;;;5106553;28;19923;-60
2022/11/10 06:23:01;;;;;;;;;;;;;;;;;;5113284;28;19912;-60
2022/11/10 06:25:28;;;;;;;;;;;;;;;;;;5116031;27;20399;-61
2022/11/10 06:27:53;;;;;;;;;;;;;;;;;;5110192;27;20289;-59
2022/11/10 06:30:19;;;;;;;;;;;;;;;;;;5116054;27;19924;-59
2022/11/10 06:32:44;;;;;;;;;;;;;;;;;;5112262;28;20165;-58
2022/11/10 06:35:10;;;;;;;;;;;;;;;;;;5112840;28;19916;-59
2022/11/10 06:37:37;;;;;;;;;;;;;;;;;;5113028;28;19920;-59
2022/11/10 06:40:03;;;;;;;;;;;;;;;;;;5112992;28;19916;-59
2022/11/10 06:42:28;;;;;;;;;;;;;;;;;;5104765;28;19969;-59
2022/11/10 06:44:54;;;;;;;;;;;;;;;;;;5110834;27;20428;-59
2022/11/10 06:47:19;;;;;;;;;;;;;;;;;;5113165;28;19918;-59
2022/11/10 06:49:44;;;;;;;;;;;;;;;;;;5112705;28;19916;-59
2022/11/10 06:52:09;;;;;;;;;;;;;;;;;;5104267;28;19920;-58
2022/11/10 06:54:35;;;;;;;;;;;;;;;;;;5112821;28;19912;-59
2022/11/10 06:57:00;;;;;;;;;;;;;;;;;;5113694;27;20261;-59
2022/11/10 06:59:25;;;;;;;;;;;;;;;;;;5112250;28;19911;-59
2022/11/10 07:01:50;;;;;;;;;;;;;;;;;;5111696;28;19912;-60
2022/11/10 07:04:16;;;;;;;;;;;;;;;;;;5113399;28;19912;-59
2022/11/10 07:06:41;;;;;;;;;;;;;;;;;;5112076;28;20379;-59
2022/11/10 07:09:06;;;;;;;;;;;;;;;;;;5112279;28;20011;-60
2022/11/10 07:11:31;;;;;;;;;;;;;;;;;;5111645;27;19924;-59
2022/11/10 07:13:57;;;;;;;;;;;;;;;;;;5113296;27;20481;-59
2022/11/10 07:16:22;;;;;;;;;;;;;;;;;;5111996;28;19923;-59
2022/11/10 07:18:47;;;;;;;;;;;;;;;;;;5112593;28;19966;-59
2022/11/10 07:21:13;;;;;;;;;;;;;;;;;;5111873;28;19937;-59
2022/11/10 07:23:38;;;;;;;;;;;;;;;;;;5112024;28;19966;-59
2022/11/10 07:26:03;;;;;;;;;;;;;;;;;;5111218;27;19968;-59
2022/11/10 07:28:29;;;;;;;;;;;;;;;;;;5112212;28;19915;-59
2022/11/10 07:30:54;;;;;;;;;;;;;;;;;;5112134;28;19912;-59
2022/11/10 07:33:19;;;;;;;;;;;;;;;;;;5095653;28;19962;-60
2022/11/10 07:35:55;;;;;;;;;;;;;;;;;;5112429;28;19960;-60
2022/11/10 07:38:20;;;;;;;;;;;;;;;;;;5105469;28;19912;-59
2022/11/10 07:40:49;;;;;;;;;;;;;;;;;;5112238;27;19916;-60
2022/11/10 07:43:14;;;;;;;;;;;;;;;;;;5111174;28;20002;-60
2022/11/10 07:45:39;;;;;;;;;;;;;;;;;;5115723;27;20014;-60
2022/11/10 07:48:05;;;;;;;;;;;;;;;;;;5111699;27;20350;-59
2022/11/10 07:50:32;;;;;;;;;;;;;;;;;;5111963;28;19919;-59
2022/11/10 07:53:02;;;;;;;;;;;;;;;;;;5111233;28;19934;-59
2022/11/10 07:55:27;;;;;;;;;;;;;;;;;;5117901;27;20384;-59
2022/11/10 07:57:56;;;;;;;;;;;;;;;;;;5111780;28;20045;-59
2022/11/10 08:00:21;;;;;;;;;;;;;;;;;;5111528;28;19912;-59
2022/11/10 08:02:46;;;;;;;;;;;;;;;;;;5110774;28;19912;-59
2022/11/10 08:05:12;;;;;;;;;;;;;;;;;;5110796;28;19920;-60
2022/11/10 08:07:37;;;;;;;;;;;;;;;;;;5103079;28;19919;-59
2022/11/10 08:10:02;;;;;;;;;;;;;;;;;;5109031;28;19926;-60
2022/11/10 08:12:28;;;;;;;;;;;;;;;;;;5108262;28;19912;-59
2022/11/10 08:14:53;;;;;;;;;;;;;;;;;;5111220;28;19931;-59
2022/11/10 08:17:18;;;;;;;;;;;;;;;;;;5111336;28;20347;-59
2022/11/10 08:19:43;;;;;;;;;;;;;;;;;;5110823;28;19995;-59
2022/11/10 08:22:09;;;;;;;;;;;;;;;;;;5110031;28;19911;-60
2022/11/10 08:24:34;;;;;;;;;;;;;;;;;;5110485;28;19931;-59
2022/11/10 08:26:59;;;;;;;;;;;;;;;;;;5110985;28;20630;-59
2022/11/10 08:29:24;;;;;;;;;;;;;;;;;;5110826;28;19920;-60
2022/11/10 08:31:50;;;;;;;;;;;;;;;;;;5109110;28;19958;-60
2022/11/10 08:34:16;;;;;;;;;;;;;;;;;;5110561;28;20399;-60
2022/11/10 08:36:41;;;;;;;;;;;;;;;;;;5110556;28;19911;-60
2022/11/10 08:39:06;;;;;;;;;;;;;;;;;;5105157;28;20440;-59
2022/11/10 08:41:31;;;;;;;;;;;;;;;;;;5103804;28;19949;-60
2022/11/10 08:43:57;;;;;;;;;;;;;;;;;;5109277;28;21111;-60
2022/11/10 08:46:22;;;;;;;;;;;;;;;;;;5110667;28;20380;-60
2022/11/10 08:48:47;;;;;;;;;;;;;;;;;;5110200;28;19915;-59
2022/11/10 08:51:13;;;;;;;;;;;;;;;;;;5109543;28;19922;-59
2022/11/10 08:53:38;;;;;;;;;;;;;;;;;;5102538;28;19916;-60
2022/11/10 08:56:03;;;;;;;;;;;;;;;;;;5110716;28;19919;-59
2022/11/10 08:58:29;;;;;;;;;;;;;;;;;;5103546;28;20369;-60
2022/11/10 09:00:55;;;;;;;;;;;;;;;;;;5111017;28;19912;-60
2022/11/10 09:03:21;;;;;;;;;;;;;;;;;;5110383;28;19912;-60
2022/11/10 09:05:47;;;;;;;;;;;;;;;;;;5104891;28;19954;-60
2022/11/10 09:08:12;;;;;;;;;;;;;;;;;;5108097;28;19959;-59
2022/11/10 09:10:39;;;;;;;;;;;;;;;;;;5110786;28;19944;-60
2022/11/10 09:13:05;;;;;;;;;;;;;;;;;;5109939;28;19920;-60
2022/11/10 09:15:30;;;;;;;;;;;;;;;;;;5110574;28;19964;-59
2022/11/10 09:17:57;;;;;;;;;;;;;;;;;;5112698;28;19912;-60
2022/11/10 09:20:22;;;;;;;;;;;;;;;;;;5112620;27;19955;-60
2022/11/10 09:22:48;;;;;;;;;;;;;;;;;;5106710;28;20442;-59
2022/11/10 09:25:13;;;;;;;;;;;;;;;;;;5112909;28;19920;-60
2022/11/10 09:27:38;;;;;;;;;;;;;;;;;;5114320;28;19912;-59
2022/11/10 09:30:04;;;;;;;;;;;;;;;;;;5114448;28;20002;-59
2022/11/10 09:32:31;;;;;;;;;;;;;;;;;;5113711;28;19912;-59
2022/11/10 09:34:56;;;;;;;;;;;;;;;;;;5112981;28;20320;-59
2022/11/10 09:37:21;;;;;;;;;;;;;;;;;;5113885;28;20018;-59
2022/11/10 09:39:47;;;;;;;;;;;;;;;;;;5114266;28;19912;-59
2022/11/10 09:42:24;;;;;;;;;;;;;;;;;;5113390;28;19946;-59
2022/11/10 09:44:53;;;;;;;;;;;;;;;;;;5113831;28;19915;-60
2022/11/10 09:47:25;;;;;;;;;;;;;;;;;;5113680;28;19957;-59
2022/11/10 09:49:52;;;;;;;;;;;;;;;;;;5117849;27;19920;-60
2022/11/10 09:52:19;;;;;;;;;;;;;;;;;;5113456;28;19911;-60
2022/11/10 09:54:51;;;;;;;;;;;;;;;;;;5113385;28;19964;-59
2022/11/10 09:57:19;;;;;;;;;;;;;;;;;;5108549;28;19911;-59
2022/11/10 09:59:44;;;;;;;;;;;;;;;;;;5113216;28;19911;-59
2022/11/10 10:02:27;;;;;;;;;;;;;;;;;;5113667;27;19919;-59
2022/11/10 10:05:11;;;;;;;;;;;;;;;;;;5106533;28;19912;-59
2022/11/10 10:07:39;;;;;;;;;;;;;;;;;;5113555;28;20434;-59
2022/11/10 10:10:13;;;;;;;;;;;;;;;;;;5113593;28;19911;-59
2022/11/10 10:12:57;;;;;;;;;;;;;;;;;;5105275;28;19920;-59
2022/11/10 10:15:23;;;;;;;;;;;;;;;;;;5113214;28;20004;-59
2022/11/10 10:17:48;;;;;;;;;;;;;;;;;;5112496;28;19950;-59
2022/11/10 10:20:16;;;;;;;;;;;;;;;;;;5112790;28;20373;-59
2022/11/10 10:22:41;;;;;;;;;;;;;;;;;;5112751;28;19912;-58
2022/11/10 10:25:10;;;;;;;;;;;;;;;;;;5112884;28;19911;-59
2022/11/10 10:27:37;;;;;;;;;;;;;;;;;;5113190;28;19911;-59
2022/11/10 10:30:10;;;;;;;;;;;;;;;;;;5110825;28;19922;-59
2022/11/10 10:32:35;;;;;;;;;;;;;;;;;;5112438;28;20026;-59
2022/11/10 10:35:01;;;;;;;;;;;;;;;;;;5109959;28;20393;-59
2022/11/10 10:37:38;;;;;;;;;;;;;;;;;;5111779;28;19969;-59
2022/11/10 10:40:04;;;;;;;;;;;;;;;;;;5111993;28;19924;-59
2022/11/10 10:42:30;;;;;;;;;;;;;;;;;;5112308;28;19957;-59
2022/11/10 10:45:16;;;;;;;;;;;;;;;;;;5114689;27;19916;-59
2022/11/10 10:47:41;;;;;;;;;;;;;;;;;;5112209;28;19918;-59
2022/11/10 10:50:25;;;;;;;;;;;;;;;;;;5111988;28;19916;-59
2022/11/10 10:53:09;;;;;;;;;;;;;;;;;;5111974;28;19912;-59
2022/11/10 10:55:35;;;;;;;;;;;;;;;;;;5112483;28;19911;-59
2022/11/10 10:58:04;;;;;;;;;;;;;;;;;;5112474;28;20242;-59
2022/11/10 11:00:30;;;;;;;;;;;;;;;;;;5111139;28;19998;-59
2022/11/10 11:03:06;;;;;;;;;;;;;;;;;;5111918;28;20003;-59
2022/11/10 11:05:31;;;;;;;;;;;;;;;;;;5107715;28;19916;-59
2022/11/10 11:07:58;;;;;;;;;;;;;;;;;;5111674;28;19916;-59
2022/11/10 11:10:27;;;;;;;;;;;;;;;;;;5109500;28;19983;-59
2022/11/10 11:12:52;;;;;;;;;;;;;;;;;;5110316;28;19911;-59
2022/11/10 11:15:20;;;;;;;;;;;;;;;;;;5104426;28;20454;-59
2022/11/10 11:17:54;;;;;;;;;;;;;;;;;;5111269;28;20293;-59
2022/11/10 11:20:22;;;;;;;;;;;;;;;;;;5111564;28;19912;-59
2022/11/10 11:22:47;;;;;;;;;;;;;;;;;;5111603;28;19934;-59
2022/11/10 11:25:18;;;;;;;;;;;;;;;;;;5111699;28;20405;-59
2022/11/10 11:27:53;;;;;;;;;;;;;;;;;;5108893;28;19916;-59
2022/11/10 11:30:19;;;;;;;;;;;;;;;;;;5112069;28;19916;-59
2022/11/10 11:32:53;;;;;;;;;;;;;;;;;;5109781;28;20399;-59
2022/11/10 11:35:25;;;;;;;;;;;;;;;;;;5102814;28;19935;-59
2022/11/10 11:37:54;;;;;;;;;;;;;;;;;;5104913;28;19912;-59
2022/11/10 11:40:28;;;;;;;;;;;;;;;;;;5111929;28;19919;-59
2022/11/10 11:42:53;;;;;;;;;;;;;;;;;;5110966;28;20381;-59
2022/11/10 11:45:22;;;;;;;;;;;;;;;;;;5114952;27;19918;-59
2022/11/10 11:48:02;;;;;;;;;;;;;;;;;;5111490;28;19912;-60
2022/11/10 11:50:49;;;;;;;;;;;;;;;;;;5110602;28;20002;-59
2022/11/10 11:53:23;;;;;;;;;;;;;;;;;;5104118;28;19960;-59
2022/11/10 11:55:56;;;;;;;;;;;;;;;;;;5111243;28;19918;-59
2022/11/10 11:58:21;;;;;;;;;;;;;;;;;;5111015;28;19911;-59
2022/11/10 12:01:05;;;;;;;;;;;;;;;;;;5111577;28;20293;-59
2022/11/10 12:03:54;;;;;;;;;;;;;;;;;;5109160;28;20349;-59
2022/11/10 12:06:22;;;;;;;;;;;;;;;;;;5106291;27;20333;-59
2022/11/10 12:08:54;;;;;;;;;;;;;;;;;;5111235;28;19922;-59
2022/11/10 12:11:23;;;;;;;;;;;;;;;;;;5102482;28;21347;-59
2022/11/10 12:14:07;;;;;;;;;;;;;;;;;;5111401;28;19912;-59
2022/11/10 12:16:33;;;;;;;;;;;;;;;;;;5103921;28;20438;-59
2022/11/10 12:19:17;;;;;;;;;;;;;;;;;;5103771;28;20297;-59
2022/11/10 12:22:09;;;;;;;;;;;;;;;;;;5104393;28;19919;-59
2022/11/10 12:24:45;;;;;;;;;;;;;;;;;;5102915;28;19918;-59
2022/11/10 12:27:16;;;;;;;;;;;;;;;;;;5109738;28;19965;-59
2022/11/10 12:30:08;;;;;;;;;;;;;;;;;;5111022;28;20334;-61
2022/11/10 12:32:38;;;;;;;;;;;;;;;;;;5104215;28;19916;-60
2022/11/10 12:35:14;;;;;;;;;;;;;;;;;;5108131;28;19916;-60
2022/11/10 12:37:59;;;;;;;;;;;;;;;;;;5111153;28;19912;-61
2022/11/10 12:40:45;;;;;;;;;;;;;;;;;;5104192;28;19958;-61
2022/11/10 12:43:21;;;;;;;;;;;;;;;;;;5103525;28;19912;-61
2022/11/10 12:45:50;;;;;;;;;;;;;;;;;;5107388;28;19920;-60
2022/11/10 12:48:16;;;;;;;;;;;;;;;;;;5109849;28;20400;-61
2022/11/10 12:50:47;;;;;;;;;;;;;;;;;;5109447;28;19911;-61
2022/11/10 12:53:23;;;;;;;;;;;;;;;;;;5112693;28;19912;-60
2022/11/10 12:55:51;;;;;;;;;;;;;;;;;;5114609;28;19919;-61
2022/11/10 12:58:17;;;;;;;;;;;;;;;;;;5115217;28;19922;-61
2022/11/10 13:00:49;;;;;;;;;;;;;;;;;;5111862;28;20023;-61
2022/11/10 13:03:23;;;;;;;;;;;;;;;;;;5143477;27;19923;-61
2022/11/10 13:05:53;;;;;;;;;;;;;;;;;;5106834;28;19916;-61
2022/11/10 13:08:23;;;;;;;;;;;;;;;;;;5114515;28;19954;-60
2022/11/10 13:10:50;;;;;;;;;;;;;;;;;;5114387;28;20014;-61
2022/11/10 13:13:15;;;;;;;;;;;;;;;;;;5114112;28;19947;-61
2022/11/10 13:15:45;;;;;;;;;;;;;;;;;;5114048;27;20444;-60
2022/11/10 13:18:20;;;;;;;;;;;;;;;;;;5113767;28;19912;-61
2022/11/10 13:20:55;;;;;;;;;;;;;;;;;;5114688;28;19915;-61
2022/11/10 13:23:23;;;;;;;;;;;;;;;;;;5113642;28;19915;-60
2022/11/10 13:25:59;;;;;;;;;;;;;;;;;;5113742;28;19916;-61
2022/11/10 13:28:43;;;;;;;;;;;;;;;;;;5106931;28;19922;-61
2022/11/10 13:31:27;;;;;;;;;;;;;;;;;;5114261;28;19942;-61
2022/11/10 13:34:11;;;;;;;;;;;;;;;;;;5114290;28;19912;-61
2022/11/10 13:36:40;;;;;;;;;;;;;;;;;;5114241;28;19918;-60
2022/11/10 13:39:17;;;;;;;;;;;;;;;;;;5114046;27;20014;-60
2022/11/10 13:41:47;;;;;;;;;;;;;;;;;;5106591;28;19916;-60
2022/11/10 13:44:21;;;;;;;;;;;;;;;;;;5117472;27;20292;-61
2022/11/10 13:46:58;;;;;;;;;;;;;;;;;;5113776;28;19912;-61
2022/11/10 13:49:38;;;;;;;;;;;;;;;;;;5113936;28;19926;-60
2022/11/10 13:52:18;;;;;;;;;;;;;;;;;;5105020;28;20304;-60
2022/11/10 13:54:46;;;;;;;;;;;;;;;;;;5105885;28;19919;-60
2022/11/10 13:57:20;;;;;;;;;;;;;;;;;;5113249;28;19916;-60
2022/11/10 13:59:54;;;;;;;;;;;;;;;;;;5106323;28;20541;-60
2022/11/10 14:02:31;;;;;;;;;;;;;;;;;;5113094;28;19947;-60
2022/11/10 14:04:57;;;;;;;;;;;;;;;;;;5112217;28;19912;-59
2022/11/10 14:07:22;;;;;;;;;;;;;;;;;;5108850;27;19965;-60
2022/11/10 14:09:50;;;;;;;;;;;;;;;;;;5111221;27;20305;-61
2022/11/10 14:12:15;;;;;;;;;;;;;;;;;;5112283;28;19918;-60
2022/11/10 14:14:51;;;;;;;;;;;;;;;;;;5113516;28;19911;-60
2022/11/10 14:17:18;;;;;;;;;;;;;;;;;;5113070;28;19919;-60
2022/11/10 14:19:44;;;;;;;;;;;;;;;;;;5111900;28;19911;-60
2022/11/10 14:22:15;;;;;;;;;;;;;;;;;;5113178;27;19921;-60
2022/11/10 14:25:04;;;;;;;;;;;;;;;;;;5113359;28;19920;-60
2022/11/10 14:27:30;;;;;;;;;;;;;;;;;;5086784;28;19911;-60
2022/11/10 14:30:04;;;;;;;;;;;;;;;;;;5112975;28;19930;-60
2022/11/10 14:32:29;;;;;;;;;;;;;;;;;;5111383;28;19915;-60
2022/11/10 14:34:55;;;;;;;;;;;;;;;;;;5112193;28;19911;-60
2022/11/10 14:37:22;;;;;;;;;;;;;;;;;;5113012;28;19915;-60
2022/11/10 14:39:48;;;;;;;;;;;;;;;;;;5112979;28;19912;-60
2022/11/10 14:42:14;;;;;;;;;;;;;;;;;;5112064;28;20403;-59
2022/11/10 14:44:39;;;;;;;;;;;;;;;;;;5113950;27;19912;-59
2022/11/10 14:47:12;;;;;;;;;;;;;;;;;;5111105;28;19922;-59
2022/11/10 14:49:37;;;;;;;;;;;;;;;;;;5112434;28;20392;-59
2022/11/10 14:52:03;;;;;;;;;;;;;;;;;;5112112;28;19915;-59
2022/11/10 14:54:28;;;;;;;;;;;;;;;;;;5112692;28;19918;-59
2022/11/10 14:56:54;;;;;;;;;;;;;;;;;;5107519;28;19916;-59
2022/11/10 14:59:20;;;;;;;;;;;;;;;;;;5112432;28;19912;-59
2022/11/10 15:01:56;;;;;;;;;;;;;;;;;;5104582;28;19922;-59
2022/11/10 15:04:24;;;;;;;;;;;;;;;;;;5112040;28;20324;-59
2022/11/10 15:06:50;;;;;;;;;;;;;;;;;;5112153;28;19916;-59
2022/11/10 15:09:21;;;;;;;;;;;;;;;;;;5111633;28;19968;-59
2022/11/10 15:11:49;;;;;;;;;;;;;;;;;;5111710;28;19916;-59
2022/11/10 15:14:38;;;;;;;;;;;;;;;;;;5104645;28;19919;-59
2022/11/10 15:17:13;;;;;;;;;;;;;;;;;;5107809;28;20006;-59
2022/11/10 15:19:45;;;;;;;;;;;;;;;;;;5112093;28;20269;-59
2022/11/10 15:22:16;;;;;;;;;;;;;;;;;;5110872;28;19934;-59
2022/11/10 15:24:42;;;;;;;;;;;;;;;;;;5110490;28;19941;-56
2022/11/10 15:27:23;;;;;;;;;;;;;;;;;;5109802;28;19958;-59
2022/11/10 15:29:48;;;;;;;;;;;;;;;;;;5109392;27;19927;-56
2022/11/10 15:32:15;;;;;;;;;;;;;;;;;;5110566;28;19920;-56
2022/11/10 15:34:41;;;;;;;;;;;;;;;;;;5105235;27;19922;-59
2022/11/10 15:37:16;;;;;;;;;;;;;;;;;;5109409;28;19972;-59
2022/11/10 15:39:41;;;;;;;;;;;;;;;;;;5108853;28;19942;-59
2022/11/10 15:42:23;;;;;;;;;;;;;;;;;;5113070;27;19933;-60
2022/11/10 15:44:48;;;;;;;;;;;;;;;;;;5106334;28;20408;-60
2022/11/10 15:47:14;;;;;;;;;;;;;;;;;;5106663;28;19962;-60
2022/11/10 15:49:40;;;;;;;;;;;;;;;;;;5106519;28;20304;-60
2022/11/10 15:52:14;;;;;;;;;;;;;;;;;;5099889;28;19938;-60
2022/11/10 15:54:40;;;;;;;;;;;;;;;;;;5106162;28;19920;-60
2022/11/10 15:57:12;;;;;;;;;;;;;;;;;;5109114;28;19968;-61
2022/11/10 15:59:37;;;;;;;;;;;;;;;;;;5108057;28;19922;-59
2022/11/10 16:02:08;;;;;;;;;;;;;;;;;;5107026;28;19998;-60
2022/11/10 16:04:33;;;;;;;;;;;;;;;;;;5105353;28;19916;-59
2022/11/10 16:06:59;;;;;;;;;;;;;;;;;;5106192;28;19915;-59
2022/11/10 16:09:24;;;;;;;;;;;;;;;;;;5105096;28;19919;-59
2022/11/10 16:11:50;;;;;;;;;;;;;;;;;;5103290;28;19916;-58
2022/11/10 16:14:15;;;;;;;;;;;;;;;;;;5106425;28;19915;-58
2022/11/10 16:16:41;;;;;;;;;;;;;;;;;;5105283;28;19954;-59
2022/11/10 16:19:10;;;;;;;;;;;;;;;;;;5105181;28;19931;-59
2022/11/10 16:21:35;;;;;;;;;;;;;;;;;;5104160;28;19998;-59
2022/11/10 16:24:01;;;;;;;;;;;;;;;;;;5103824;28;20015;-59
2022/11/10 16:26:26;;;;;;;;;;;;;;;;;;5107517;28;19916;-59
2022/11/10 16:28:51;;;;;;;;;;;;;;;;;;5107162;28;19920;-59
2022/11/10 16:31:18;;;;;;;;;;;;;;;;;;5108839;28;19916;-59
2022/11/10 16:33:44;;;;;;;;;;;;;;;;;;5108850;28;20389;-59
2022/11/10 16:36:24;;;;;;;;;;;;;;;;;;5109193;28;19923;-59
2022/11/10 16:38:49;;;;;;;;;;;;;;;;;;5109040;28;19916;-60
2022/11/10 16:41:15;;;;;;;;;;;;;;;;;;5108100;28;19923;-59
2022/11/10 16:43:40;;;;;;;;;;;;;;;;;;5106321;28;19923;-59
2022/11/10 16:46:14;;;;;;;;;;;;;;;;;;5108261;28;19981;-57
2022/11/10 16:48:42;;;;;;;;;;;;;;;;;;5107398;28;20015;-55
2022/11/10 16:51:08;;;;;;;;;;;;;;;;;;5108597;28;20027;-55
2022/11/10 16:53:36;;;;;;;;;;;;;;;;;;5107959;28;19969;-57
2022/11/10 16:56:02;;;;;;;;;;;;;;;;;;5108405;28;19996;-55
2022/11/10 16:58:27;;;;;;;;;;;;;;;;;;5107443;28;19966;-55
2022/11/10 17:00:55;;;;;;;;;;;;;;;;;;5105009;28;19916;-55
2022/11/10 17:03:28;;;;;;;;;;;;;;;;;;5105169;28;19916;-56